Time;durP1;ratioP1;P1;durP2;ratioP2;P2;SDS_P1;SDS_P2;PMS_P1;PMS_P2;Temp;Humidity;BMP_temperature;BMP_pressure;BME280_temperature;BME280_humidity;BME280_pressure;Samples;Min_cycle;Max_cycle;Signal;HPM_P1;HPM_P2
2021/03/22 00:00:21;;;;;;;11.07;3.58;;;10.10;51.90;;;;;;2060989;28;20042;-59
2021/03/22 00:01:43;;;;;;;12.63;2.80;;;10.10;52.10;;;;;;2059138;28;20042;-59
2021/03/22 00:03:05;;;;;;;12.05;2.88;;;10.10;52.00;;;;;;2063190;28;20069;-60
2021/03/22 00:04:26;;;;;;;9.23;2.90;;;10.00;51.90;;;;;;2058793;28;20038;-59
2021/03/22 00:05:48;;;;;;;8.40;2.55;;;10.10;52.00;;;;;;2064175;28;20287;-58
2021/03/22 00:07:09;;;;;;;14.57;3.83;;;10.00;52.00;;;;;;2060363;28;20042;-59
2021/03/22 00:08:30;;;;;;;9.13;2.83;;;10.00;52.00;;;;;;2063745;28;20084;-59
2021/03/22 00:09:51;;;;;;;11.52;3.58;;;10.00;52.00;;;;;;2062275;28;20049;-59
2021/03/22 00:11:12;;;;;;;12.50;3.65;;;10.10;52.10;;;;;;2062067;28;20050;-59
2021/03/22 00:12:33;;;;;;;12.07;2.53;;;10.00;52.20;;;;;;2061175;28;20040;-60
2021/03/22 00:13:54;;;;;;;9.63;2.65;;;10.00;52.20;;;;;;2062536;28;20038;-59
2021/03/22 00:15:16;;;;;;;13.48;3.35;;;10.00;52.20;;;;;;2062558;28;20046;-58
2021/03/22 00:16:37;;;;;;;11.98;3.33;;;10.00;52.20;;;;;;2062495;28;20493;-58
2021/03/22 00:17:59;;;;;;;8.02;2.90;;;10.00;52.30;;;;;;2061575;28;20030;-60
2021/03/22 00:19:20;;;;;;;12.52;3.40;;;10.10;52.40;;;;;;2056987;28;20077;-60
2021/03/22 00:20:41;;;;;;;12.15;3.70;;;10.10;52.40;;;;;;2063277;28;20042;-59
2021/03/22 00:22:03;;;;;;;10.93;3.35;;;10.00;52.40;;;;;;2065640;28;20128;-60
2021/03/22 00:23:24;;;;;;;17.23;3.60;;;10.00;52.40;;;;;;2061995;28;20022;-60
2021/03/22 00:24:45;;;;;;;9.13;3.20;;;10.00;52.40;;;;;;2064398;28;20055;-59
2021/03/22 00:26:07;;;;;;;12.60;3.03;;;10.00;52.50;;;;;;2062126;28;20045;-60
2021/03/22 00:27:28;;;;;;;11.82;2.92;;;10.00;52.50;;;;;;2060405;28;20742;-59
2021/03/22 00:28:49;;;;;;;10.98;3.65;;;10.10;52.50;;;;;;2065113;28;20040;-60
2021/03/22 00:30:15;;;;;;;9.85;3.28;;;10.10;52.50;;;;;;2060818;28;20035;-58
2021/03/22 00:31:36;;;;;;;7.68;3.00;;;10.10;52.50;;;;;;2058287;28;20085;-61
2021/03/22 00:32:56;;;;;;;11.73;3.33;;;10.10;52.40;;;;;;2060429;28;20533;-59
2021/03/22 00:34:17;;;;;;;13.57;3.45;;;10.10;52.50;;;;;;2063227;28;20030;-59
2021/03/22 00:35:39;;;;;;;10.52;3.60;;;10.00;52.50;;;;;;2058221;28;20432;-59
2021/03/22 00:37:00;;;;;;;15.35;3.28;;;10.10;52.60;;;;;;2062983;28;20034;-59
2021/03/22 00:38:20;;;;;;;14.02;3.50;;;10.10;52.60;;;;;;2060779;28;20037;-59
2021/03/22 00:39:41;;;;;;;11.25;3.22;;;10.00;52.50;;;;;;2060639;28;20061;-57
2021/03/22 00:41:04;;;;;;;10.65;3.33;;;10.10;52.60;;;;;;2053907;28;20034;-58
2021/03/22 00:42:24;;;;;;;9.95;3.10;;;10.00;52.60;;;;;;2059911;28;20035;-60
2021/03/22 00:43:45;;;;;;;12.07;3.70;;;10.10;52.70;;;;;;2062377;28;20045;-59
2021/03/22 00:45:08;;;;;;;11.93;3.25;;;10.10;52.80;;;;;;2061398;28;20085;-60
2021/03/22 00:46:29;;;;;;;15.30;3.90;;;10.00;52.80;;;;;;2063360;28;20042;-60
2021/03/22 00:47:51;;;;;;;8.50;2.83;;;10.00;52.80;;;;;;2060976;28;20046;-59
2021/03/22 00:49:13;;;;;;;8.65;2.97;;;10.00;52.80;;;;;;2060972;28;20092;-60
2021/03/22 00:50:37;;;;;;;10.10;3.15;;;10.00;52.90;;;;;;2057828;28;20026;-59
2021/03/22 00:51:58;;;;;;;12.85;3.60;;;10.00;53.00;;;;;;2061893;28;20040;-60
2021/03/22 00:53:20;;;;;;;15.07;3.17;;;10.00;52.90;;;;;;2054940;28;20413;-60
2021/03/22 00:54:41;;;;;;;11.88;3.58;;;10.00;52.90;;;;;;2059730;28;20038;-58
2021/03/22 00:56:02;;;;;;;8.05;3.30;;;10.10;52.90;;;;;;2062088;28;20045;-59
2021/03/22 00:57:23;;;;;;;12.60;3.33;;;10.10;53.00;;;;;;2062788;28;20034;-59
2021/03/22 00:58:44;;;;;;;11.27;3.13;;;10.00;52.90;;;;;;2060312;28;20026;-60
2021/03/22 01:00:07;;;;;;;12.30;2.90;;;10.00;52.90;;;;;;2061710;28;20050;-59
2021/03/22 01:01:28;;;;;;;8.48;2.90;;;10.00;53.00;;;;;;2057581;28;20478;-59
2021/03/22 01:02:49;;;;;;;14.55;3.38;;;10.00;52.90;;;;;;2053640;28;20123;-59
2021/03/22 01:04:11;;;;;;;11.57;3.08;;;10.00;53.00;;;;;;2059860;28;20034;-60
2021/03/22 01:05:32;;;;;;;14.32;4.00;;;10.00;53.00;;;;;;2061966;28;20216;-59
2021/03/22 01:06:53;;;;;;;10.68;3.55;;;10.00;53.10;;;;;;2060530;28;20042;-60
2021/03/22 01:08:15;;;;;;;9.43;2.88;;;10.00;53.10;;;;;;2062490;28;20043;-60
2021/03/22 01:09:36;;;;;;;12.82;3.40;;;10.00;53.10;;;;;;2061680;28;20141;-59
2021/03/22 01:11:19;;;;;;;11.25;3.05;;;9.90;53.10;;;;;;2063089;28;20073;-59
2021/03/22 01:12:40;;;;;;;16.08;3.50;;;9.90;53.10;;;;;;2060190;28;20841;-59
2021/03/22 01:14:01;;;;;;;13.15;3.70;;;10.00;53.00;;;;;;2061682;28;20041;-59
2021/03/22 01:15:22;;;;;;;9.88;3.17;;;9.90;52.90;;;;;;2061603;28;20159;-59
2021/03/22 01:16:43;;;;;;;8.05;3.22;;;9.90;53.00;;;;;;2061742;28;20089;-60
2021/03/22 01:18:05;;;;;;;12.98;3.25;;;9.80;53.00;;;;;;2063326;28;20038;-59
2021/03/22 01:19:27;;;;;;;6.85;2.83;;;9.80;53.10;;;;;;2053854;28;20035;-58
2021/03/22 01:20:54;;;;;;;11.45;3.28;;;9.80;53.20;;;;;;2060936;28;20033;-60
2021/03/22 01:22:15;;;;;;;12.40;3.55;;;9.80;53.30;;;;;;2062597;28;20067;-59
2021/03/22 01:23:36;;;;;;;14.35;3.05;;;9.80;53.20;;;;;;2050163;28;20039;-59
2021/03/22 01:24:57;;;;;;;10.82;2.90;;;9.80;53.30;;;;;;2057774;28;20461;-59
2021/03/22 01:26:21;;;;;;;15.30;3.85;;;9.70;53.30;;;;;;2062326;28;20034;-60
2021/03/22 01:27:42;;;;;;;8.30;3.75;;;9.70;53.50;;;;;;2061268;28;20033;-60
2021/03/22 01:29:25;;;;;;;10.57;3.53;;;9.70;53.50;;;;;;2062131;28;20450;-59
2021/03/22 01:30:53;;;;;;;8.93;3.45;;;9.60;53.60;;;;;;2064562;28;20034;-59
2021/03/22 01:32:14;;;;;;;11.68;3.50;;;9.60;53.70;;;;;;2060898;28;20042;-59
2021/03/22 01:33:39;;;;;;;14.27;3.50;;;9.60;53.60;;;;;;2062795;28;20835;-59
2021/03/22 01:34:59;;;;;;;9.32;3.35;;;9.50;53.60;;;;;;2054429;28;20767;-60
2021/03/22 01:36:24;;;;;;;10.32;3.65;;;9.50;53.60;;;;;;2059509;28;20031;-59
2021/03/22 01:37:45;;;;;;;10.00;3.50;;;9.50;53.80;;;;;;2059891;28;20034;-60
2021/03/22 01:39:14;;;;;;;10.77;2.97;;;9.50;53.80;;;;;;2060180;28;20081;-59
2021/03/22 01:41:14;;;;;;;12.13;3.45;;;9.50;54.10;;;;;;2057310;28;20069;-59
2021/03/22 01:42:56;;;;;;;17.25;3.60;;;9.40;54.40;;;;;;2059344;28;20027;-59
2021/03/22 01:44:22;;;;;;;14.35;3.65;;;9.40;54.50;;;;;;2061593;28;20247;-60
2021/03/22 01:45:44;;;;;;;12.68;3.40;;;9.40;54.20;;;;;;2060330;28;20057;-59
2021/03/22 01:47:21;;;;;;;9.55;3.05;;;9.40;54.10;;;;;;2061727;28;20026;-59
2021/03/22 01:48:42;;;;;;;12.00;3.47;;;9.40;54.30;;;;;;2058274;28;20026;-60
2021/03/22 01:50:15;;;;;;;8.05;3.15;;;9.30;54.60;;;;;;2053354;28;20646;-59
2021/03/22 01:51:37;;;;;;;8.63;3.20;;;9.30;54.50;;;;;;2058185;28;20038;-58
2021/03/22 01:53:00;;;;;;;10.65;2.97;;;9.20;54.30;;;;;;2060762;28;20169;-59
2021/03/22 01:54:21;;;;;;;15.80;3.38;;;9.20;54.40;;;;;;2061898;28;20018;-60
2021/03/22 01:55:43;;;;;;;13.80;3.95;;;9.20;54.50;;;;;;2061802;28;20041;-60
2021/03/22 01:57:30;;;;;;;14.00;3.40;;;9.20;54.50;;;;;;2062755;28;20057;-59
2021/03/22 01:58:52;;;;;;;11.18;3.50;;;9.10;55.10;;;;;;2054176;28;20101;-59
2021/03/22 02:00:20;;;;;;;11.20;3.55;;;9.10;54.60;;;;;;2058458;28;20050;-59
2021/03/22 02:01:47;;;;;;;13.95;4.55;;;9.10;54.90;;;;;;2058249;28;20042;-60
2021/03/22 02:03:13;;;;;;;11.48;3.63;;;9.10;54.90;;;;;;2052441;28;20038;-59
2021/03/22 02:04:34;;;;;;;8.52;3.35;;;9.10;54.90;;;;;;2055118;28;20474;-59
2021/03/22 02:05:55;;;;;;;11.13;3.30;;;9.10;54.90;;;;;;2060662;28;20461;-60
2021/03/22 02:07:16;;;;;;;10.65;3.05;;;9.00;54.90;;;;;;2060209;28;20038;-60
2021/03/22 02:08:40;;;;;;;11.82;3.83;;;9.00;55.00;;;;;;2061660;28;20581;-59
2021/03/22 02:10:01;;;;;;;11.57;3.60;;;9.00;55.10;;;;;;2062446;28;20092;-59
2021/03/22 02:11:26;;;;;;;11.25;3.40;;;9.00;55.10;;;;;;2059743;28;20456;-60
2021/03/22 02:12:47;;;;;;;13.38;3.03;;;9.00;55.20;;;;;;2052512;28;20042;-60
2021/03/22 02:14:10;;;;;;;12.15;3.53;;;9.00;55.10;;;;;;2052716;28;20319;-60
2021/03/22 02:15:32;;;;;;;13.13;3.30;;;8.90;55.10;;;;;;2055948;28;20041;-61
2021/03/22 02:17:04;;;;;;;15.35;3.88;;;8.90;55.30;;;;;;2049634;28;20136;-61
2021/03/22 02:18:53;;;;;;;13.65;3.92;;;8.90;55.50;;;;;;2053900;28;20585;-59
2021/03/22 02:20:59;;;;;;;12.73;3.28;;;8.90;55.80;;;;;;2060835;28;20529;-60
2021/03/22 02:22:38;;;;;;;10.43;3.85;;;8.90;55.80;;;;;;2048310;28;20203;-59
2021/03/22 02:24:20;;;;;;;12.85;3.20;;;8.90;55.40;;;;;;2059491;28;20141;-59
2021/03/22 02:25:58;;;;;;;8.77;3.28;;;8.80;55.50;;;;;;2059947;28;20096;-60
2021/03/22 02:28:04;;;;;;;8.63;3.58;;;8.80;55.70;;;;;;2052409;28;20058;-60
2021/03/22 02:29:44;;;;;;;10.23;3.60;;;8.80;55.90;;;;;;2061361;28;20041;-59
2021/03/22 02:31:36;;;;;;;10.52;3.38;;;8.80;55.80;;;;;;2062160;28;20135;-60
2021/03/22 02:33:20;;;;;;;13.10;3.55;;;8.80;55.90;;;;;;2063311;28;20042;-60
2021/03/22 02:34:51;;;;;;;6.43;3.10;;;8.70;55.90;;;;;;2063009;28;20048;-60
2021/03/22 02:36:48;;;;;;;11.95;3.45;;;8.70;56.00;;;;;;2063112;28;20049;-60
2021/03/22 02:38:17;;;;;;;9.25;3.45;;;8.70;56.20;;;;;;2062483;28;20027;-60
2021/03/22 02:39:49;;;;;;;11.75;3.60;;;8.70;55.90;;;;;;2059631;28;20125;-58
2021/03/22 02:41:19;;;;;;;12.65;3.17;;;8.70;56.00;;;;;;2062341;28;20126;-59
2021/03/22 02:42:45;;;;;;;14.40;4.03;;;8.70;56.10;;;;;;2062986;28;20131;-59
2021/03/22 02:44:08;;;;;;;9.85;3.47;;;8.70;56.00;;;;;;2064320;28;20813;-59
2021/03/22 02:45:38;;;;;;;8.43;3.28;;;8.70;56.20;;;;;;2064695;28;20038;-58
2021/03/22 02:47:04;;;;;;;15.43;3.72;;;8.70;56.40;;;;;;2062772;28;20115;-59
2021/03/22 02:48:28;;;;;;;11.75;3.70;;;8.70;56.30;;;;;;2058153;28;20038;-59
2021/03/22 02:49:51;;;;;;;11.30;3.80;;;8.70;56.20;;;;;;2064172;28;20054;-59
2021/03/22 02:51:24;;;;;;;11.55;3.67;;;8.70;56.30;;;;;;2063203;28;20038;-59
2021/03/22 02:53:22;;;;;;;13.63;3.67;;;8.70;56.70;;;;;;2062461;28;20034;-58
2021/03/22 02:55:02;;;;;;;13.60;3.38;;;8.70;56.70;;;;;;2063766;28;20045;-59
2021/03/22 02:57:07;;;;;;;9.65;3.58;;;8.70;56.70;;;;;;2056498;28;20038;-59
2021/03/22 02:58:40;;;;;;;12.20;3.75;;;8.70;56.80;;;;;;2060774;28;20031;-60
2021/03/22 03:00:07;;;;;;;9.25;3.05;;;8.70;56.20;;;;;;2060981;28;20486;-60
2021/03/22 03:01:36;;;;;;;9.57;3.30;;;8.70;56.30;;;;;;2057606;28;20115;-59
2021/03/22 03:03:03;;;;;;;9.32;3.70;;;8.70;56.50;;;;;;2062334;28;20120;-60
2021/03/22 03:04:26;;;;;;;12.35;3.55;;;8.70;56.50;;;;;;2058798;28;20042;-59
2021/03/22 03:05:50;;;;;;;14.68;4.25;;;8.60;56.40;;;;;;2060310;28;20138;-60
2021/03/22 03:07:19;;;;;;;8.45;3.20;;;8.60;56.70;;;;;;2060717;28;20382;-60
2021/03/22 03:08:41;;;;;;;11.65;4.55;;;8.60;57.00;;;;;;2059228;28;20054;-59
2021/03/22 03:10:06;;;;;;;10.02;3.35;;;8.60;56.90;;;;;;2062243;28;20133;-60
2021/03/22 03:11:27;;;;;;;11.30;3.60;;;8.60;57.10;;;;;;2062306;28;20042;-59
2021/03/22 03:12:48;;;;;;;13.65;3.85;;;8.60;57.10;;;;;;2062442;28;20153;-59
2021/03/22 03:14:09;;;;;;;12.77;4.55;;;8.60;57.20;;;;;;2064017;28;20500;-59
2021/03/22 03:15:30;;;;;;;12.40;3.33;;;8.60;57.20;;;;;;2058094;28;20066;-59
2021/03/22 03:16:51;;;;;;;9.75;4.25;;;8.60;57.30;;;;;;2063049;28;20116;-60
2021/03/22 03:18:12;;;;;;;11.57;3.95;;;8.60;57.30;;;;;;2060823;28;20041;-60
2021/03/22 03:19:33;;;;;;;11.13;3.53;;;8.60;57.30;;;;;;2060887;28;20042;-59
2021/03/22 03:20:57;;;;;;;10.27;3.75;;;8.60;57.40;;;;;;2062220;28;20445;-60
2021/03/22 03:22:19;;;;;;;12.85;4.45;;;8.60;57.50;;;;;;2062258;28;20539;-59
2021/03/22 03:23:40;;;;;;;14.45;3.83;;;8.60;58.10;;;;;;2061081;28;20078;-59
2021/03/22 03:25:01;;;;;;;12.95;3.55;;;8.60;57.60;;;;;;2061934;28;20414;-60
2021/03/22 03:26:23;;;;;;;19.02;4.05;;;8.60;57.70;;;;;;2064070;28;20491;-60
2021/03/22 03:27:44;;;;;;;12.93;4.00;;;8.60;57.80;;;;;;2062520;28;20034;-60
2021/03/22 03:29:06;;;;;;;13.02;4.13;;;8.60;57.80;;;;;;2062784;28;20045;-59
2021/03/22 03:30:30;;;;;;;9.52;3.60;;;8.70;58.00;;;;;;2063898;28;20091;-60
2021/03/22 03:31:51;;;;;;;11.05;3.80;;;8.70;58.10;;;;;;2063497;28;20037;-59
2021/03/22 03:33:14;;;;;;;10.05;3.83;;;8.60;58.00;;;;;;2063589;28;20042;-59
2021/03/22 03:34:35;;;;;;;15.02;4.20;;;8.70;58.10;;;;;;2058250;28;20031;-59
2021/03/22 03:35:57;;;;;;;13.25;4.43;;;8.70;58.20;;;;;;2061523;28;20030;-59
2021/03/22 03:37:18;;;;;;;11.45;3.75;;;8.70;58.20;;;;;;2062196;28;20034;-60
2021/03/22 03:38:39;;;;;;;9.75;3.38;;;8.60;58.20;;;;;;2061740;28;20555;-60
2021/03/22 03:40:00;;;;;;;9.85;3.65;;;8.70;58.20;;;;;;2063027;28;20134;-59
2021/03/22 03:41:21;;;;;;;12.30;4.00;;;8.70;58.20;;;;;;2063364;28;20046;-59
2021/03/22 03:42:42;;;;;;;12.60;3.67;;;8.70;58.10;;;;;;2062491;28;20041;-60
2021/03/22 03:44:05;;;;;;;12.80;3.83;;;8.70;58.10;;;;;;2062274;28;20540;-60
2021/03/22 03:45:29;;;;;;;12.13;3.80;;;8.70;58.10;;;;;;2056998;28;20694;-59
2021/03/22 03:46:50;;;;;;;11.73;3.35;;;8.70;58.10;;;;;;2061736;28;20043;-60
2021/03/22 03:48:18;;;;;;;11.63;3.50;;;8.70;58.10;;;;;;2061275;28;20084;-59
2021/03/22 03:49:38;;;;;;;11.13;3.70;;;8.70;58.10;;;;;;2061740;28;20121;-60
2021/03/22 03:51:01;;;;;;;9.73;3.83;;;8.70;58.00;;;;;;2062366;28;20116;-59
2021/03/22 03:52:22;;;;;;;9.48;3.45;;;8.70;58.10;;;;;;2059944;28;20031;-60
2021/03/22 03:53:43;;;;;;;10.10;3.83;;;8.70;58.00;;;;;;2058869;28;20056;-60
2021/03/22 03:55:06;;;;;;;11.55;3.88;;;8.70;57.90;;;;;;2061313;28;20046;-59
2021/03/22 03:56:27;;;;;;;9.70;3.25;;;8.70;58.00;;;;;;2057158;28;20031;-60
2021/03/22 03:57:49;;;;;;;8.98;4.00;;;8.70;57.90;;;;;;2062908;28;20492;-59
2021/03/22 03:59:10;;;;;;;11.93;3.70;;;8.70;58.00;;;;;;2062510;28;20064;-60
2021/03/22 04:00:42;;;;;;;12.60;4.10;;;8.70;57.90;;;;;;2062940;28;20050;-60
2021/03/22 04:02:03;;;;;;;8.23;3.42;;;8.70;58.00;;;;;;2062079;28;20038;-60
2021/03/22 04:03:26;;;;;;;13.57;3.95;;;8.60;57.80;;;;;;2061003;28;20038;-59
2021/03/22 04:04:47;;;;;;;17.90;5.25;;;8.70;57.90;;;;;;2062650;28;20469;-59
2021/03/22 04:06:11;;;;;;;9.93;3.88;;;8.60;57.80;;;;;;2061476;28;20034;-60
2021/03/22 04:07:32;;;;;;;15.25;4.20;;;8.60;57.90;;;;;;2063407;28;20041;-59
2021/03/22 04:08:58;;;;;;;10.10;3.53;;;8.60;57.90;;;;;;2060258;28;20031;-60
2021/03/22 04:10:20;;;;;;;9.18;3.67;;;8.60;58.10;;;;;;2062364;28;20373;-60
2021/03/22 04:11:47;;;;;;;12.15;3.70;;;8.60;58.00;;;;;;2057991;28;20036;-60
2021/03/22 04:13:08;;;;;;;9.07;3.90;;;8.60;58.10;;;;;;2061228;28;20061;-60
2021/03/22 04:14:29;;;;;;;11.75;3.55;;;8.50;57.90;;;;;;2058309;28;20054;-59
2021/03/22 04:15:50;;;;;;;11.20;4.18;;;8.50;58.00;;;;;;2062193;28;20070;-60
2021/03/22 04:17:11;;;;;;;12.25;4.15;;;8.50;58.10;;;;;;2060670;28;20085;-59
2021/03/22 04:18:34;;;;;;;11.25;4.13;;;8.50;58.10;;;;;;2061353;28;20141;-59
2021/03/22 04:19:55;;;;;;;13.18;4.85;;;8.50;58.20;;;;;;2062752;28;20448;-60
2021/03/22 04:21:25;;;;;;;12.23;4.30;;;8.50;58.20;;;;;;2063166;28;20296;-59
2021/03/22 04:22:46;;;;;;;10.63;4.03;;;8.50;58.50;;;;;;2061274;28;20034;-60
2021/03/22 04:24:07;;;;;;;12.20;4.78;;;8.50;58.40;;;;;;2062194;28;20485;-59
2021/03/22 04:25:28;;;;;;;18.20;5.00;;;8.50;58.40;;;;;;2061888;28;20469;-59
2021/03/22 04:26:49;;;;;;;14.05;4.38;;;8.40;58.40;;;;;;2062110;28;20070;-59
2021/03/22 04:28:10;;;;;;;8.48;3.78;;;8.50;58.50;;;;;;2061851;28;20030;-60
2021/03/22 04:29:31;;;;;;;11.57;3.97;;;8.40;58.60;;;;;;2059102;28;20038;-59
2021/03/22 04:30:52;;;;;;;8.02;3.63;;;8.50;58.70;;;;;;2061733;28;20070;-60
2021/03/22 04:32:13;;;;;;;11.57;4.57;;;8.40;58.70;;;;;;2050278;28;20039;-60
2021/03/22 04:33:34;;;;;;;16.42;4.70;;;8.40;58.80;;;;;;2057805;28;20034;-60
2021/03/22 04:34:55;;;;;;;11.90;4.30;;;8.50;59.40;;;;;;2060534;28;20061;-60
2021/03/22 04:36:19;;;;;;;13.00;3.70;;;8.50;58.90;;;;;;2061856;28;20045;-60
2021/03/22 04:37:40;;;;;;;13.32;5.15;;;8.50;59.00;;;;;;2060882;28;20443;-60
2021/03/22 04:39:01;;;;;;;16.05;4.75;;;8.50;59.00;;;;;;2064353;28;20034;-59
2021/03/22 04:40:25;;;;;;;10.60;4.50;;;8.50;59.10;;;;;;2056442;28;20038;-59
2021/03/22 04:41:46;;;;;;;15.80;5.30;;;8.50;59.20;;;;;;2059364;28;20497;-59
2021/03/22 04:43:07;;;;;;;14.32;4.43;;;8.50;59.10;;;;;;2063887;28;20042;-60
2021/03/22 04:44:28;;;;;;;9.80;4.30;;;8.50;59.10;;;;;;2059901;28;20040;-59
2021/03/22 04:45:49;;;;;;;14.32;5.22;;;8.50;59.20;;;;;;2063096;28;20038;-60
2021/03/22 04:47:10;;;;;;;17.67;5.25;;;8.60;59.20;;;;;;2061204;28;20113;-59
2021/03/22 04:48:31;;;;;;;14.75;5.32;;;8.60;59.20;;;;;;2063248;28;20046;-59
2021/03/22 04:49:51;;;;;;;15.57;4.75;;;8.50;59.10;;;;;;2054485;28;20125;-60
2021/03/22 04:51:12;;;;;;;15.52;5.43;;;8.60;59.20;;;;;;2052676;28;20035;-60
2021/03/22 04:52:33;;;;;;;11.93;4.90;;;8.60;59.20;;;;;;2059621;28;20041;-60
2021/03/22 04:53:55;;;;;;;11.70;4.82;;;8.60;59.10;;;;;;2063292;28;20033;-60
2021/03/22 04:55:21;;;;;;;17.65;5.30;;;8.60;59.10;;;;;;2061994;28;20049;-60
2021/03/22 04:56:42;;;;;;;17.38;4.82;;;8.60;59.30;;;;;;2061388;28;20045;-60
2021/03/22 04:58:03;;;;;;;12.60;5.22;;;8.60;59.30;;;;;;2061931;28;20176;-57
2021/03/22 04:59:24;;;;;;;13.70;5.13;;;8.60;59.20;;;;;;2062356;28;20038;-60
2021/03/22 05:00:46;;;;;;;13.05;4.93;;;8.60;59.20;;;;;;2060221;28;20073;-59
2021/03/22 05:02:07;;;;;;;14.40;5.28;;;8.60;59.30;;;;;;2059755;28;20049;-60
2021/03/22 05:03:28;;;;;;;15.90;5.32;;;8.60;59.30;;;;;;2060715;28;20026;-60
2021/03/22 05:04:50;;;;;;;12.30;4.55;;;8.60;59.30;;;;;;2061944;28;20034;-60
2021/03/22 05:06:11;;;;;;;12.48;4.72;;;8.60;59.30;;;;;;2059583;28;20035;-59
2021/03/22 05:07:32;;;;;;;10.35;4.80;;;8.60;59.30;;;;;;2057544;28;20034;-59
2021/03/22 05:08:56;;;;;;;11.05;5.03;;;8.60;59.30;;;;;;2063838;28;20466;-58
2021/03/22 05:10:34;;;;;;;18.80;5.80;;;8.70;59.50;;;;;;2062665;28;20430;-59
2021/03/22 05:11:55;;;;;;;14.20;5.13;;;8.70;59.60;;;;;;2060748;28;20031;-59
2021/03/22 05:13:17;;;;;;;14.05;4.95;;;8.70;59.40;;;;;;2063438;28;20108;-60
2021/03/22 05:14:38;;;;;;;13.02;5.03;;;8.70;59.50;;;;;;2059142;28;20087;-60
2021/03/22 05:15:59;;;;;;;14.02;5.55;;;8.70;59.40;;;;;;2061634;28;20038;-60
2021/03/22 05:17:20;;;;;;;14.32;5.38;;;8.70;59.40;;;;;;2061825;28;20074;-60
2021/03/22 05:18:41;;;;;;;14.40;5.63;;;8.70;59.40;;;;;;2060493;28;20041;-60
2021/03/22 05:20:05;;;;;;;13.07;5.07;;;8.70;59.30;;;;;;2059348;28;20039;-59
2021/03/22 05:21:26;;;;;;;14.43;5.18;;;8.70;59.40;;;;;;2055290;28;20467;-58
2021/03/22 05:22:47;;;;;;;13.48;5.13;;;8.70;59.40;;;;;;2062058;28;20042;-60
2021/03/22 05:24:08;;;;;;;15.10;5.13;;;8.70;59.30;;;;;;2062245;28;20030;-58
2021/03/22 05:25:29;;;;;;;18.08;5.43;;;8.70;59.30;;;;;;2062094;28;20431;-58
2021/03/22 05:26:51;;;;;;;14.70;5.72;;;8.70;59.40;;;;;;2062603;28;20241;-60
2021/03/22 05:28:13;;;;;;;12.35;4.88;;;8.70;59.40;;;;;;2063906;28;20034;-59
2021/03/22 05:29:34;;;;;;;11.98;5.05;;;8.70;59.40;;;;;;2052935;28;20088;-60
2021/03/22 05:30:55;;;;;;;15.50;5.32;;;8.70;59.30;;;;;;2051284;28;20780;-59
2021/03/22 05:32:28;;;;;;;13.55;5.88;;;8.70;59.30;;;;;;2059530;28;20042;-59
2021/03/22 05:33:49;;;;;;;13.27;5.50;;;8.70;59.50;;;;;;2063563;28;20072;-60
2021/03/22 05:35:13;;;;;;;16.52;5.88;;;8.70;59.20;;;;;;2060364;28;20120;-59
2021/03/22 05:36:34;;;;;;;14.48;5.78;;;8.70;59.30;;;;;;2057967;28;20113;-59
2021/03/22 05:37:56;;;;;;;12.68;5.80;;;8.70;59.20;;;;;;2060042;28;20389;-59
2021/03/22 05:39:19;;;;;;;14.55;5.82;;;8.70;59.30;;;;;;2063074;28;20595;-59
2021/03/22 05:40:48;;;;;;;14.85;5.88;;;8.70;59.20;;;;;;2057870;28;20128;-60
2021/03/22 05:42:44;;;;;;;13.77;5.53;;;8.70;59.40;;;;;;2062498;28;20158;-60
2021/03/22 05:44:26;;;;;;;15.98;5.50;;;8.70;59.60;;;;;;2054988;28;20035;-59
2021/03/22 05:46:14;;;;;;;13.73;5.53;;;8.70;59.60;;;;;;2056227;28;20033;-60
2021/03/22 05:47:50;;;;;;;10.93;4.90;;;8.70;59.40;;;;;;2058603;28;20030;-59
2021/03/22 05:49:26;;;;;;;13.05;5.22;;;8.70;59.30;;;;;;2061077;28;20065;-59
2021/03/22 05:51:09;;;;;;;12.05;5.88;;;8.70;59.20;;;;;;2060324;28;20053;-60
2021/03/22 05:52:59;;;;;;;12.23;5.20;;;8.60;59.30;;;;;;2063276;28;20030;-60
2021/03/22 05:54:28;;;;;;;14.25;5.72;;;8.60;59.20;;;;;;2055841;28;20101;-59
2021/03/22 05:55:58;;;;;;;13.07;6.68;;;8.70;59.10;;;;;;2058552;28;20065;-59
2021/03/22 05:57:37;;;;;;;11.48;5.50;;;8.60;59.00;;;;;;2061891;28;20373;-59
2021/03/22 05:59:21;;;;;;;12.38;5.63;;;8.60;59.30;;;;;;2059873;28;20073;-60
2021/03/22 06:00:44;;;;;;;14.48;6.35;;;8.60;59.30;;;;;;2059713;28;20453;-60
2021/03/22 06:02:16;;;;;;;13.57;6.20;;;8.60;59.10;;;;;;2054734;28;20444;-59
2021/03/22 06:03:51;;;;;;;14.00;6.13;;;8.60;59.30;;;;;;2054327;28;20153;-59
2021/03/22 06:05:38;;;;;;;13.10;5.93;;;8.60;59.50;;;;;;2060044;28;20864;-59
2021/03/22 06:06:59;;;;;;;18.70;6.75;;;8.60;59.80;;;;;;2028645;28;20485;-60
2021/03/22 06:08:38;;;;;;;16.55;6.55;;;8.60;59.30;;;;;;2060807;28;20042;-60
2021/03/22 06:10:14;;;;;;;14.10;6.68;;;8.50;59.60;;;;;;2061841;28;20034;-60
2021/03/22 06:11:35;;;;;;;13.93;5.60;;;8.60;59.50;;;;;;2059150;28;20543;-60
2021/03/22 06:13:00;;;;;;;14.18;6.00;;;8.60;59.50;;;;;;2061071;28;20681;-60
2021/03/22 06:14:29;;;;;;;13.20;6.03;;;8.60;59.60;;;;;;2061117;28;20470;-58
2021/03/22 06:16:05;;;;;;;13.32;6.05;;;8.60;59.70;;;;;;2059706;28;20145;-60
2021/03/22 06:17:36;;;;;;;9.63;5.90;;;8.60;59.80;;;;;;2048180;28;20109;-60
2021/03/22 06:19:04;;;;;;;14.18;6.13;;;8.60;59.90;;;;;;2060714;28;20031;-59
2021/03/22 06:20:30;;;;;;;13.07;6.28;;;8.60;59.80;;;;;;2056687;28;20058;-59
2021/03/22 06:21:51;;;;;;;14.95;6.30;;;8.60;59.90;;;;;;2062356;28;20050;-59
2021/03/22 06:23:25;;;;;;;15.10;6.50;;;8.60;59.80;;;;;;2069278;28;20030;-59
2021/03/22 06:24:46;;;;;;;17.30;7.03;;;8.70;60.20;;;;;;2062923;28;20038;-59
2021/03/22 06:26:35;;;;;;;16.90;6.55;;;8.70;59.90;;;;;;2061076;28;20129;-60
2021/03/22 06:28:05;;;;;;;14.18;6.28;;;8.70;60.60;;;;;;2060788;28;20113;-59
2021/03/22 06:29:39;;;;;;;11.07;6.20;;;8.70;60.00;;;;;;2064390;28;20039;-60
2021/03/22 06:31:03;;;;;;;18.20;7.10;;;8.70;60.00;;;;;;2061431;28;20218;-60
2021/03/22 06:32:30;;;;;;;14.90;6.25;;;8.70;59.90;;;;;;2062648;28;20034;-60
2021/03/22 06:34:02;;;;;;;15.48;6.65;;;8.70;60.00;;;;;;2060793;28;20030;-60
2021/03/22 06:35:29;;;;;;;14.27;6.25;;;8.70;60.10;;;;;;2061396;28;20026;-59
2021/03/22 06:36:50;;;;;;;12.15;6.30;;;8.70;59.80;;;;;;2061165;28;20042;-59
2021/03/22 06:38:11;;;;;;;14.15;6.60;;;8.70;59.80;;;;;;2062250;28;20157;-60
2021/03/22 06:39:32;;;;;;;15.27;6.53;;;8.70;59.80;;;;;;2061599;28;20038;-58
2021/03/22 06:40:53;;;;;;;13.27;6.53;;;8.70;59.90;;;;;;2057834;28;20162;-60
2021/03/22 06:42:19;;;;;;;13.90;6.22;;;8.80;60.00;;;;;;2060476;28;20038;-60
2021/03/22 06:43:52;;;;;;;11.80;5.90;;;8.80;60.10;;;;;;2060869;28;20428;-60
2021/03/22 06:45:28;;;;;;;13.85;6.75;;;8.80;60.30;;;;;;2060685;28;20034;-60
2021/03/22 06:47:03;;;;;;;16.63;7.35;;;8.80;60.40;;;;;;2061513;28;20038;-59
2021/03/22 06:48:35;;;;;;;15.25;6.65;;;8.80;60.20;;;;;;2054290;28;20077;-58
2021/03/22 06:50:28;;;;;;;12.27;6.43;;;8.80;60.20;;;;;;2060059;28;20035;-58
2021/03/22 06:52:07;;;;;;;12.00;6.10;;;8.80;60.20;;;;;;2059369;28;20043;-60
2021/03/22 06:53:31;;;;;;;12.98;6.20;;;8.80;59.90;;;;;;2054728;28;20035;-60
2021/03/22 06:54:54;;;;;;;13.43;6.30;;;8.90;59.90;;;;;;2061872;28;20049;-58
2021/03/22 06:56:21;;;;;;;13.45;5.93;;;8.90;59.90;;;;;;2060161;28;20034;-60
2021/03/22 06:57:50;;;;;;;14.57;6.25;;;8.90;60.00;;;;;;2065343;28;20113;-60
2021/03/22 06:59:21;;;;;;;17.10;6.78;;;8.90;60.10;;;;;;2051775;28;20534;-60
2021/03/22 07:00:42;;;;;;;16.35;6.15;;;8.90;60.20;;;;;;2060783;28;20042;-60
2021/03/22 07:02:22;;;;;;;14.55;6.40;;;8.90;59.90;;;;;;2066668;28;20022;-59
2021/03/22 07:03:43;;;;;;;13.45;6.38;;;8.90;60.40;;;;;;2060680;28;20038;-60
2021/03/22 07:05:19;;;;;;;18.48;6.68;;;8.90;59.90;;;;;;2059763;28;20319;-60
2021/03/22 07:06:40;;;;;;;13.15;6.38;;;8.90;60.40;;;;;;2057162;28;20053;-60
2021/03/22 07:08:12;;;;;;;15.02;7.45;;;8.90;59.90;;;;;;2061893;28;20158;-59
2021/03/22 07:09:36;;;;;;;11.60;6.50;;;9.00;59.90;;;;;;2055105;28;20398;-59
2021/03/22 07:11:10;;;;;;;11.68;6.20;;;9.00;60.00;;;;;;2059711;28;20049;-60
2021/03/22 07:12:35;;;;;;;13.55;6.43;;;9.00;60.50;;;;;;2061079;28;20399;-60
2021/03/22 07:14:05;;;;;;;13.30;6.88;;;9.00;60.30;;;;;;2062449;28;20057;-60
2021/03/22 07:15:32;;;;;;;12.75;6.35;;;9.00;60.20;;;;;;2058728;28;20041;-60
2021/03/22 07:17:14;;;;;;;14.65;7.20;;;9.00;60.40;;;;;;2065190;28;20498;-59
2021/03/22 07:18:36;;;;;;;14.57;6.72;;;9.00;60.60;;;;;;2059260;28;20045;-59
2021/03/22 07:20:16;;;;;;;11.82;6.63;;;9.00;60.20;;;;;;2061091;28;20180;-59
2021/03/22 07:21:49;;;;;;;19.73;7.13;;;9.00;60.60;;;;;;2059051;28;20053;-60
2021/03/22 07:23:30;;;;;;;14.95;6.50;;;9.00;60.50;;;;;;2058519;28;20039;-60
2021/03/22 07:25:26;;;;;;;17.88;7.63;;;9.00;60.60;;;;;;2058739;28;20536;-60
2021/03/22 07:27:04;;;;;;;15.45;6.65;;;9.10;60.40;;;;;;2056500;28;20038;-59
2021/03/22 07:28:31;;;;;;;15.25;7.40;;;9.10;60.50;;;;;;2059640;28;20284;-60
2021/03/22 07:30:01;;;;;;;13.90;6.80;;;9.10;60.10;;;;;;2060831;28;20038;-60